sensor_id;sensor_type;location;lat;lon;timestamp;pressure;altitude;pressure_sealevel;temperature;humidity
25759;BME280;13604;52.496;13.456;2023-02-12T00:00:57;102949.22;;;6.01;100.00
25759;BME280;13604;52.496;13.456;2023-02-12T00:03:22;102951.34;;;5.96;100.00
25759;BME280;13604;52.496;13.456;2023-02-12T00:05:47;102948.28;;;5.92;100.00
25759;BME280;13604;52.496;13.456;2023-02-12T00:08:13;102934.28;;;5.81;100.00
25759;BME280;13604;52.496;13.456;2023-02-12T00:10:41;102931.56;;;5.79;100.00
25759;BME280;13604;52.496;13.456;2023-02-12T00:13:07;102957.88;;;5.93;100.00
25759;BME280;13604;52.496;13.456;2023-02-12T00:15:33;102964.56;;;5.90;100.00
25759;BME280;13604;52.496;13.456;2023-02-12T00:17:59;102965.31;;;5.89;100.00
25759;BME280;13604;52.496;13.456;2023-02-12T00:20:24;102978.09;;;5.88;100.00
25759;BME280;13604;52.496;13.456;2023-02-12T00:22:49;102980.69;;;5.88;100.00
25759;BME280;13604;52.496;13.456;2023-02-12T00:25:15;102981.44;;;5.87;100.00
25759;BME280;13604;52.496;13.456;2023-02-12T00:27:41;102977.19;;;5.87;100.00
25759;BME280;13604;52.496;13.456;2023-02-12T00:30:06;102975.81;;;5.91;100.00
25759;BME280;13604;52.496;13.456;2023-02-12T00:32:31;102971.88;;;5.86;100.00
25759;BME280;13604;52.496;13.456;2023-02-12T00:34:57;102953.47;;;5.74;100.00
25759;BME280;13604;52.496;13.456;2023-02-12T00:37:22;102970.34;;;5.88;100.00
25759;BME280;13604;52.496;13.456;2023-02-12T00:39:47;102969.56;;;5.80;100.00
25759;BME280;13604;52.496;13.456;2023-02-12T00:42:13;102973.50;;;5.85;100.00
25759;BME280;13604;52.496;13.456;2023-02-12T00:44:38;102968.50;;;5.87;100.00
25759;BME280;13604;52.496;13.456;2023-02-12T00:47:04;102984.00;;;5.87;100.00
25759;BME280;13604;52.496;13.456;2023-02-12T00:49:30;102971.25;;;5.80;100.00
25759;BME280;13604;52.496;13.456;2023-02-12T00:52:03;102996.19;;;5.88;100.00
25759;BME280;13604;52.496;13.456;2023-02-12T00:54:29;102997.25;;;5.90;100.00
25759;BME280;13604;52.496;13.456;2023-02-12T00:56:55;102979.00;;;5.80;100.00
25759;BME280;13604;52.496;13.456;2023-02-12T00:59:24;102996.78;;;5.85;100.00
25759;BME280;13604;52.496;13.456;2023-02-12T01:01:50;103009.44;;;5.82;100.00
25759;BME280;13604;52.496;13.456;2023-02-12T01:04:16;103014.88;;;5.85;100.00
25759;BME280;13604;52.496;13.456;2023-02-12T01:06:42;103007.44;;;5.80;100.00
25759;BME280;13604;52.496;13.456;2023-02-12T01:09:07;102996.94;;;5.78;100.00
25759;BME280;13604;52.496;13.456;2023-02-12T01:11:33;103014.88;;;5.85;100.00
25759;BME280;13604;52.496;13.456;2023-02-12T01:13:58;103008.03;;;5.77;100.00
25759;BME280;13604;52.496;13.456;2023-02-12T01:16:24;103012.94;;;5.83;100.00
25759;BME280;13604;52.496;13.456;2023-02-12T01:18:51;103022.53;;;5.84;100.00
25759;BME280;13604;52.496;13.456;2023-02-12T01:21:20;103015.66;;;5.84;100.00
25759;BME280;13604;52.496;13.456;2023-02-12T01:23:46;103020.22;;;5.87;100.00
25759;BME280;13604;52.496;13.456;2023-02-12T01:26:11;103015.81;;;5.86;100.00
25759;BME280;13604;52.496;13.456;2023-02-12T01:28:38;103021.16;;;5.87;100.00
25759;BME280;13604;52.496;13.456;2023-02-12T01:31:12;103020.38;;;5.80;100.00
25759;BME280;13604;52.496;13.456;2023-02-12T01:33:38;103027.53;;;5.82;100.00
25759;BME280;13604;52.496;13.456;2023-02-12T01:36:04;103023.88;;;5.80;100.00
25759;BME280;13604;52.496;13.456;2023-02-12T01:38:29;103025.06;;;5.75;100.00
25759;BME280;13604;52.496;13.456;2023-02-12T01:41:06;103036.63;;;5.79;100.00
25759;BME280;13604;52.496;13.456;2023-02-12T01:43:35;103035.41;;;5.75;100.00
25759;BME280;13604;52.496;13.456;2023-02-12T01:46:01;103041.22;;;5.72;100.00
25759;BME280;13604;52.496;13.456;2023-02-12T01:48:31;103031.44;;;5.61;100.00
25759;BME280;13604;52.496;13.456;2023-02-12T01:50:58;103045.16;;;5.78;100.00
25759;BME280;13604;52.496;13.456;2023-02-12T01:53:28;103038.31;;;5.69;100.00
25759;BME280;13604;52.496;13.456;2023-02-12T01:55:57;103050.19;;;5.76;100.00
25759;BME280;13604;52.496;13.456;2023-02-12T01:58:24;103053.25;;;5.81;100.00
25759;BME280;13604;52.496;13.456;2023-02-12T02:00:51;103049.72;;;5.80;100.00
25759;BME280;13604;52.496;13.456;2023-02-12T02:03:16;103038.63;;;5.72;100.00
25759;BME280;13604;52.496;13.456;2023-02-12T02:05:51;103054.31;;;5.83;100.00
25759;BME280;13604;52.496;13.456;2023-02-12T02:08:17;103049.13;;;5.83;100.00
25759;BME280;13604;52.496;13.456;2023-02-12T02:10:42;103064.03;;;5.85;100.00
25759;BME280;13604;52.496;13.456;2023-02-12T02:13:08;103048.81;;;5.80;100.00
25759;BME280;13604;52.496;13.456;2023-02-12T02:16:09;103042.53;;;5.69;100.00
25759;BME280;13604;52.496;13.456;2023-02-12T02:18:45;103043.94;;;5.74;100.00
25759;BME280;13604;52.496;13.456;2023-02-12T02:21:41;103055.34;;;5.76;100.00
25759;BME280;13604;52.496;13.456;2023-02-12T02:24:33;103047.59;;;5.76;100.00
25759;BME280;13604;52.496;13.456;2023-02-12T02:32:24;103046.97;;;5.70;100.00
25759;BME280;13604;52.496;13.456;2023-02-12T02:35:12;103057.47;;;5.71;100.00
25759;BME280;13604;52.496;13.456;2023-02-12T02:37:46;103034.94;;;5.62;100.00
25759;BME280;13604;52.496;13.456;2023-02-12T02:40:17;103056.56;;;5.71;100.00
25759;BME280;13604;52.496;13.456;2023-02-12T02:42:54;103057.63;;;5.64;100.00
25759;BME280;13604;52.496;13.456;2023-02-12T02:45:31;103039.16;;;5.52;100.00
25759;BME280;13604;52.496;13.456;2023-02-12T02:48:02;103063.53;;;5.63;100.00
25759;BME280;13604;52.496;13.456;2023-02-12T02:50:30;103056.50;;;5.62;100.00
25759;BME280;13604;52.496;13.456;2023-02-12T02:53:06;103045.69;;;5.49;100.00
25759;BME280;13604;52.496;13.456;2023-02-12T02:55:38;103046.63;;;5.49;100.00
25759;BME280;13604;52.496;13.456;2023-02-12T02:58:09;103068.53;;;5.62;100.00
25759;BME280;13604;52.496;13.456;2023-02-12T03:00:48;103060.94;;;5.55;100.00
25759;BME280;13604;52.496;13.456;2023-02-12T03:03:24;103069.91;;;5.58;100.00
25759;BME280;13604;52.496;13.456;2023-02-12T03:05:56;103071.25;;;5.55;100.00
25759;BME280;13604;52.496;13.456;2023-02-12T03:08:28;103056.63;;;5.46;100.00
25759;BME280;13604;52.496;13.456;2023-02-12T03:11:11;103057.84;;;5.41;100.00
25759;BME280;13604;52.496;13.456;2023-02-12T03:13:56;103077.78;;;5.51;100.00
25759;BME280;13604;52.496;13.456;2023-02-12T03:16:24;103067.41;;;5.42;100.00
25759;BME280;13604;52.496;13.456;2023-02-12T03:18:58;103078.38;;;5.48;100.00
25759;BME280;13604;52.496;13.456;2023-02-12T03:21:31;103066.75;;;5.36;100.00
25759;BME280;13604;52.496;13.456;2023-02-12T03:24:06;103082.66;;;5.48;100.00
25759;BME280;13604;52.496;13.456;2023-02-12T03:26:51;103098.47;;;5.51;100.00
25759;BME280;13604;52.496;13.456;2023-02-12T03:29:19;103084.59;;;5.42;100.00
25759;BME280;13604;52.496;13.456;2023-02-12T03:32:06;103070.69;;;5.32;100.00
25759;BME280;13604;52.496;13.456;2023-02-12T03:34:57;103101.06;;;5.51;100.00
25759;BME280;13604;52.496;13.456;2023-02-12T03:37:32;103099.53;;;5.53;100.00
25759;BME280;13604;52.496;13.456;2023-02-12T03:40:27;103095.72;;;5.49;100.00
25759;BME280;13604;52.496;13.456;2023-02-12T03:43:09;103091.16;;;5.47;100.00
25759;BME280;13604;52.496;13.456;2023-02-12T03:45:50;103108.03;;;5.52;100.00
25759;BME280;13604;52.496;13.456;2023-02-12T03:48:37;103083.97;;;5.44;100.00
25759;BME280;13604;52.496;13.456;2023-02-12T03:53:59;103082.25;;;5.36;100.00
25759;BME280;13604;52.496;13.456;2023-02-12T03:56:31;103100.97;;;5.33;100.00
25759;BME280;13604;52.496;13.456;2023-02-12T03:58:57;103098.63;;;5.28;100.00
25759;BME280;13604;52.496;13.456;2023-02-12T04:01:22;103105.84;;;5.39;100.00
25759;BME280;13604;52.496;13.456;2023-02-12T04:03:48;103110.56;;;5.34;100.00
25759;BME280;13604;52.496;13.456;2023-02-12T04:06:22;103128.19;;;5.39;100.00
25759;BME280;13604;52.496;13.456;2023-02-12T04:08:48;103113.06;;;5.26;100.00
25759;BME280;13604;52.496;13.456;2023-02-12T04:11:22;103124.81;;;5.31;100.00
25759;BME280;13604;52.496;13.456;2023-02-12T04:14:25;103111.03;;;5.14;100.00
25759;BME280;13604;52.496;13.456;2023-02-12T04:16:59;103132.34;;;5.21;100.00
25759;BME280;13604;52.496;13.456;2023-02-12T04:25:38;103129.72;;;5.12;100.00
25759;BME280;13604;52.496;13.456;2023-02-12T04:28:21;103128.16;;;5.05;100.00
25759;BME280;13604;52.496;13.456;2023-02-12T04:30:56;103128.59;;;5.01;100.00
25759;BME280;13604;52.496;13.456;2023-02-12T04:33:24;103138.16;;;5.02;100.00
25759;BME280;13604;52.496;13.456;2023-02-12T04:36:07;103116.69;;;4.94;100.00
25759;BME280;13604;52.496;13.456;2023-02-12T04:41:05;103133.19;;;4.88;100.00
25759;BME280;13604;52.496;13.456;2023-02-12T04:43:34;103115.59;;;4.68;100.00
25759;BME280;13604;52.496;13.456;2023-02-12T04:46:01;103132.38;;;4.80;100.00
25759;BME280;13604;52.496;13.456;2023-02-12T04:48:26;103127.81;;;4.77;100.00
25759;BME280;13604;52.496;13.456;2023-02-12T04:50:51;103133.88;;;4.78;100.00
25759;BME280;13604;52.496;13.456;2023-02-12T04:53:17;103114.09;;;4.70;100.00
25759;BME280;13604;52.496;13.456;2023-02-12T04:55:42;103100.63;;;4.56;100.00
25759;BME280;13604;52.496;13.456;2023-02-12T04:58:08;103134.16;;;4.72;100.00
25759;BME280;13604;52.496;13.456;2023-02-12T05:00:33;103129.75;;;4.71;100.00
25759;BME280;13604;52.496;13.456;2023-02-12T05:02:59;103136.66;;;4.64;100.00
25759;BME280;13604;52.496;13.456;2023-02-12T05:05:24;103101.47;;;4.48;100.00
25759;BME280;13604;52.496;13.456;2023-02-12T05:07:50;103132.44;;;4.64;100.00
25759;BME280;13604;52.496;13.456;2023-02-12T05:10:15;103120.78;;;4.52;100.00
25759;BME280;13604;52.496;13.456;2023-02-12T05:12:40;103141.25;;;4.66;100.00
25759;BME280;13604;52.496;13.456;2023-02-12T05:15:06;103147.69;;;4.78;100.00
25759;BME280;13604;52.496;13.456;2023-02-12T05:17:31;103131.06;;;4.84;100.00
25759;BME280;13604;52.496;13.456;2023-02-12T05:19:56;103135.78;;;4.88;100.00
25759;BME280;13604;52.496;13.456;2023-02-12T05:22:22;103140.59;;;5.01;100.00
25759;BME280;13604;52.496;13.456;2023-02-12T05:24:47;103138.81;;;5.08;100.00
25759;BME280;13604;52.496;13.456;2023-02-12T05:27:12;103121.28;;;4.97;100.00
25759;BME280;13604;52.496;13.456;2023-02-12T05:29:38;103125.50;;;4.96;100.00
25759;BME280;13604;52.496;13.456;2023-02-12T05:32:03;103133.00;;;5.02;100.00
25759;BME280;13604;52.496;13.456;2023-02-12T05:34:29;103140.91;;;5.04;100.00
25759;BME280;13604;52.496;13.456;2023-02-12T05:36:54;103159.38;;;5.15;100.00
25759;BME280;13604;52.496;13.456;2023-02-12T05:39:20;103165.19;;;5.22;100.00
25759;BME280;13604;52.496;13.456;2023-02-12T05:41:45;103138.22;;;5.11;100.00
25759;BME280;13604;52.496;13.456;2023-02-12T05:44:11;103158.50;;;5.24;100.00
25759;BME280;13604;52.496;13.456;2023-02-12T05:46:37;103149.84;;;5.23;100.00
25759;BME280;13604;52.496;13.456;2023-02-12T05:49:03;103168.00;;;5.32;100.00
25759;BME280;13604;52.496;13.456;2023-02-12T05:51:28;103169.84;;;5.33;100.00
25759;BME280;13604;52.496;13.456;2023-02-12T05:53:58;103168.72;;;5.31;100.00
25759;BME280;13604;52.496;13.456;2023-02-12T05:56:29;103149.53;;;5.20;100.00
25759;BME280;13604;52.496;13.456;2023-02-12T05:58:58;103164.91;;;5.27;100.00
25759;BME280;13604;52.496;13.456;2023-02-12T06:01:29;103145.88;;;5.18;100.00
25759;BME280;13604;52.496;13.456;2023-02-12T06:03:55;103156.50;;;5.21;100.00
25759;BME280;13604;52.496;13.456;2023-02-12T06:06:20;103157.44;;;5.22;100.00
25759;BME280;13604;52.496;13.456;2023-02-12T06:08:47;103164.34;;;5.30;100.00
25759;BME280;13604;52.496;13.456;2023-02-12T06:11:14;103164.91;;;5.27;100.00
25759;BME280;13604;52.496;13.456;2023-02-12T06:13:40;103158.69;;;5.25;100.00
25759;BME280;13604;52.496;13.456;2023-02-12T06:16:05;103167.94;;;5.23;100.00
25759;BME280;13604;52.496;13.456;2023-02-12T06:18:34;103183.44;;;5.23;100.00
25759;BME280;13604;52.496;13.456;2023-02-12T06:21:02;103172.63;;;5.19;100.00
25759;BME280;13604;52.496;13.456;2023-02-12T06:23:27;103163.47;;;5.13;100.00
25759;BME280;13604;52.496;13.456;2023-02-12T06:25:55;103195.66;;;5.33;100.00
25759;BME280;13604;52.496;13.456;2023-02-12T06:28:20;103190.41;;;5.24;100.00
25759;BME280;13604;52.496;13.456;2023-02-12T06:30:46;103208.59;;;5.33;100.00
25759;BME280;13604;52.496;13.456;2023-02-12T06:33:11;103193.78;;;5.23;100.00
25759;BME280;13604;52.496;13.456;2023-02-12T06:35:37;103219.09;;;5.34;100.00
25759;BME280;13604;52.496;13.456;2023-02-12T06:38:03;103215.31;;;5.40;100.00
25759;BME280;13604;52.496;13.456;2023-02-12T06:40:28;103211.06;;;5.40;100.00
25759;BME280;13604;52.496;13.456;2023-02-12T06:42:54;103221.88;;;5.45;100.00
25759;BME280;13604;52.496;13.456;2023-02-12T06:45:19;103205.56;;;5.37;100.00
25759;BME280;13604;52.496;13.456;2023-02-12T06:47:44;103224.78;;;5.48;100.00
25759;BME280;13604;52.496;13.456;2023-02-12T06:50:10;103219.78;;;5.49;100.00
25759;BME280;13604;52.496;13.456;2023-02-12T06:52:35;103227.22;;;5.46;100.00
25759;BME280;13604;52.496;13.456;2023-02-12T06:55:00;103232.81;;;5.42;100.00
25759;BME280;13604;52.496;13.456;2023-02-12T06:57:25;103215.47;;;5.41;100.00
25759;BME280;13604;52.496;13.456;2023-02-12T06:59:52;103218.69;;;5.47;100.00
25759;BME280;13604;52.496;13.456;2023-02-12T07:02:17;103220.69;;;5.50;100.00
25759;BME280;13604;52.496;13.456;2023-02-12T07:04:43;103233.94;;;5.53;100.00
25759;BME280;13604;52.496;13.456;2023-02-12T07:07:08;103223.28;;;5.50;100.00
25759;BME280;13604;52.496;13.456;2023-02-12T07:09:33;103248.50;;;5.52;100.00
25759;BME280;13604;52.496;13.456;2023-02-12T07:11:58;103243.50;;;5.54;100.00
25759;BME280;13604;52.496;13.456;2023-02-12T07:14:24;103265.91;;;5.62;100.00
25759;BME280;13604;52.496;13.456;2023-02-12T07:16:50;103244.66;;;5.65;100.00
25759;BME280;13604;52.496;13.456;2023-02-12T07:19:16;103248.78;;;5.71;100.00
25759;BME280;13604;52.496;13.456;2023-02-12T07:21:41;103250.66;;;5.72;100.00
25759;BME280;13604;52.496;13.456;2023-02-12T07:24:09;103246.25;;;5.80;100.00
25759;BME280;13604;52.496;13.456;2023-02-12T07:26:36;103260.00;;;5.88;100.00
25759;BME280;13604;52.496;13.456;2023-02-12T07:29:01;103260.47;;;5.93;100.00
25759;BME280;13604;52.496;13.456;2023-02-12T07:31:27;103258.06;;;5.94;100.00
25759;BME280;13604;52.496;13.456;2023-02-12T07:33:53;103267.97;;;5.98;100.00
25759;BME280;13604;52.496;13.456;2023-02-12T07:36:19;103243.63;;;5.96;100.00
25759;BME280;13604;52.496;13.456;2023-02-12T07:38:45;103256.66;;;6.14;100.00
25759;BME280;13604;52.496;13.456;2023-02-12T07:43:41;103267.50;;;6.27;100.00
25759;BME280;13604;52.496;13.456;2023-02-12T07:46:12;103267.50;;;6.27;100.00
25759;BME280;13604;52.496;13.456;2023-02-12T07:48:38;103269.63;;;6.31;99.57
25759;BME280;13604;52.496;13.456;2023-02-12T07:51:06;103274.22;;;6.34;99.70
25759;BME280;13604;52.496;13.456;2023-02-12T07:53:32;103249.38;;;6.27;99.25
25759;BME280;13604;52.496;13.456;2023-02-12T07:56:25;103279.75;;;6.45;98.62
25759;BME280;13604;52.496;13.456;2023-02-12T07:58:55;103282.63;;;6.40;98.25
25759;BME280;13604;52.496;13.456;2023-02-12T08:01:27;103282.78;;;6.41;97.94
25759;BME280;13604;52.496;13.456;2023-02-12T08:03:52;103285.50;;;6.43;97.74
25759;BME280;13604;52.496;13.456;2023-02-12T08:06:24;103287.19;;;6.51;97.92
25759;BME280;13604;52.496;13.456;2023-02-12T08:08:50;103284.34;;;6.57;97.55
25759;BME280;13604;52.496;13.456;2023-02-12T08:11:16;103283.72;;;6.59;96.64
25759;BME280;13604;52.496;13.456;2023-02-12T08:13:43;103289.53;;;6.66;96.37
25759;BME280;13604;52.496;13.456;2023-02-12T08:16:11;103285.28;;;6.66;95.25
25759;BME280;13604;52.496;13.456;2023-02-12T08:18:37;103287.25;;;6.60;94.58
25759;BME280;13604;52.496;13.456;2023-02-12T08:21:15;103296.66;;;6.59;94.22
25759;BME280;13604;52.496;13.456;2023-02-12T08:23:42;103297.59;;;6.60;94.98
25759;BME280;13604;52.496;13.456;2023-02-12T08:26:09;103302.63;;;6.67;93.46
25759;BME280;13604;52.496;13.456;2023-02-12T08:28:36;103283.28;;;6.55;93.99
25759;BME280;13604;52.496;13.456;2023-02-12T08:31:04;103281.59;;;6.64;93.67
25759;BME280;13604;52.496;13.456;2023-02-12T08:33:29;103312.09;;;6.75;93.39
25759;BME280;13604;52.496;13.456;2023-02-12T08:36:12;103313.78;;;6.75;93.16
25759;BME280;13604;52.496;13.456;2023-02-12T08:38:38;103321.09;;;6.79;93.01
25759;BME280;13604;52.496;13.456;2023-02-12T08:41:07;103326.00;;;6.85;93.42
25759;BME280;13604;52.496;13.456;2023-02-12T08:43:33;103296.13;;;6.79;92.84
25759;BME280;13604;52.496;13.456;2023-02-12T08:46:13;103301.75;;;6.84;91.61
25759;BME280;13604;52.496;13.456;2023-02-12T08:48:40;103328.44;;;6.92;92.23
25759;BME280;13604;52.496;13.456;2023-02-12T08:51:08;103327.38;;;6.98;92.18
25759;BME280;13604;52.496;13.456;2023-02-12T08:53:34;103318.22;;;6.93;91.81
25759;BME280;13604;52.496;13.456;2023-02-12T08:56:00;103325.09;;;7.02;91.52
25759;BME280;13604;52.496;13.456;2023-02-12T08:58:25;103333.81;;;7.11;91.33
25759;BME280;13604;52.496;13.456;2023-02-12T09:00:50;103340.97;;;7.13;89.80
25759;BME280;13604;52.496;13.456;2023-02-12T09:03:16;103342.19;;;7.17;90.07
25759;BME280;13604;52.496;13.456;2023-02-12T09:05:41;103334.88;;;7.22;89.56
25759;BME280;13604;52.496;13.456;2023-02-12T09:08:06;103345.88;;;7.19;89.37
25759;BME280;13604;52.496;13.456;2023-02-12T09:10:32;103347.53;;;7.18;88.77
25759;BME280;13604;52.496;13.456;2023-02-12T09:12:57;103338.22;;;7.12;89.59
25759;BME280;13604;52.496;13.456;2023-02-12T09:15:23;103328.91;;;6.96;89.34
25759;BME280;13604;52.496;13.456;2023-02-12T09:17:48;103351.19;;;7.12;89.51
25759;BME280;13604;52.496;13.456;2023-02-12T09:20:13;103357.31;;;7.21;89.83
25759;BME280;13604;52.496;13.456;2023-02-12T09:22:39;103352.44;;;7.15;89.32
25759;BME280;13604;52.496;13.456;2023-02-12T09:25:05;103355.75;;;7.06;90.53
25759;BME280;13604;52.496;13.456;2023-02-12T09:27:30;103352.38;;;6.98;90.41
25759;BME280;13604;52.496;13.456;2023-02-12T09:29:55;103361.53;;;7.12;90.82
25759;BME280;13604;52.496;13.456;2023-02-12T09:32:21;103370.09;;;7.28;90.50
25759;BME280;13604;52.496;13.456;2023-02-12T09:34:46;103367.53;;;7.54;90.18
25759;BME280;13604;52.496;13.456;2023-02-12T09:37:11;103371.16;;;7.83;88.93
25759;BME280;13604;52.496;13.456;2023-02-12T09:39:37;103359.88;;;7.82;87.73
25759;BME280;13604;52.496;13.456;2023-02-12T09:45:09;103356.19;;;7.89;87.71
25759;BME280;13604;52.496;13.456;2023-02-12T09:50:30;103367.81;;;8.46;85.38
25759;BME280;13604;52.496;13.456;2023-02-12T09:52:58;103374.97;;;8.58;85.17
25759;BME280;13604;52.496;13.456;2023-02-12T09:55:30;103381.34;;;8.70;85.06
25759;BME280;13604;52.496;13.456;2023-02-12T09:57:56;103375.44;;;8.81;84.02
25759;BME280;13604;52.496;13.456;2023-02-12T10:00:26;103380.03;;;8.84;83.95
25759;BME280;13604;52.496;13.456;2023-02-12T10:02:53;103376.25;;;8.80;83.71
25759;BME280;13604;52.496;13.456;2023-02-12T10:05:26;103383.06;;;8.61;83.91
25759;BME280;13604;52.496;13.456;2023-02-12T10:10:53;103372.19;;;8.02;85.93
25759;BME280;13604;52.496;13.456;2023-02-12T10:13:50;103384.75;;;7.89;87.72
25759;BME280;13604;52.496;13.456;2023-02-12T10:22:10;103377.53;;;8.04;88.98
25759;BME280;13604;52.496;13.456;2023-02-12T10:27:34;103371.44;;;8.03;87.87
25759;BME280;13604;52.496;13.456;2023-02-12T10:30:03;103380.81;;;7.75;90.12
25759;BME280;13604;52.496;13.456;2023-02-12T10:32:38;103370.09;;;7.89;90.77
25759;BME280;13604;52.496;13.456;2023-02-12T10:35:13;103372.50;;;8.14;90.00
25759;BME280;13604;52.496;13.456;2023-02-12T10:37:50;103350.00;;;8.23;88.88
25759;BME280;13604;52.496;13.456;2023-02-12T10:40:23;103373.28;;;8.58;88.00
25759;BME280;13604;52.496;13.456;2023-02-12T10:42:51;103363.53;;;8.56;88.02
25759;BME280;13604;52.496;13.456;2023-02-12T10:45:23;103374.31;;;8.69;86.29
25759;BME280;13604;52.496;13.456;2023-02-12T10:47:53;103358.19;;;8.54;86.96
25759;BME280;13604;52.496;13.456;2023-02-12T10:51:10;103372.53;;;8.42;86.87
25759;BME280;13604;52.496;13.456;2023-02-12T10:53:39;103372.81;;;8.08;89.33
25759;BME280;13604;52.496;13.456;2023-02-12T10:58:57;103377.44;;;7.59;93.73
25759;BME280;13604;52.496;13.456;2023-02-12T11:01:29;103379.28;;;7.42;96.70
25759;BME280;13604;52.496;13.456;2023-02-12T11:03:57;103368.28;;;7.27;98.04
25759;BME280;13604;52.496;13.456;2023-02-12T11:06:27;103377.28;;;7.22;99.58
25759;BME280;13604;52.496;13.456;2023-02-12T11:08:52;103368.72;;;7.14;100.00
25759;BME280;13604;52.496;13.456;2023-02-12T11:11:36;103361.22;;;7.00;100.00
25759;BME280;13604;52.496;13.456;2023-02-12T11:14:13;103376.34;;;7.04;100.00
25759;BME280;13604;52.496;13.456;2023-02-12T11:16:50;103367.78;;;7.05;100.00
25759;BME280;13604;52.496;13.456;2023-02-12T11:19:30;103369.66;;;7.32;100.00
25759;BME280;13604;52.496;13.456;2023-02-12T11:22:13;103369.97;;;7.35;100.00
25759;BME280;13604;52.496;13.456;2023-02-12T11:24:43;103354.09;;;7.32;100.00
25759;BME280;13604;52.496;13.456;2023-02-12T11:29:44;103369.19;;;7.19;100.00
25759;BME280;13604;52.496;13.456;2023-02-12T11:32:18;103344.78;;;6.99;100.00
25759;BME280;13604;52.496;13.456;2023-02-12T11:35:03;103362.44;;;6.95;100.00
25759;BME280;13604;52.496;13.456;2023-02-12T11:37:32;103361.16;;;6.74;100.00
25759;BME280;13604;52.496;13.456;2023-02-12T11:40:00;103347.56;;;6.68;100.00
25759;BME280;13604;52.496;13.456;2023-02-12T11:42:29;103354.16;;;6.73;100.00
25759;BME280;13604;52.496;13.456;2023-02-12T11:44:59;103320.03;;;6.68;100.00
25759;BME280;13604;52.496;13.456;2023-02-12T11:47:27;103359.56;;;7.18;100.00
25759;BME280;13604;52.496;13.456;2023-02-12T11:50:17;103358.13;;;8.09;99.85
25759;BME280;13604;52.496;13.456;2023-02-12T11:52:48;103351.63;;;8.40;93.74
25759;BME280;13604;52.496;13.456;2023-02-12T11:55:23;103339.13;;;8.36;92.60
25759;BME280;13604;52.496;13.456;2023-02-12T11:57:51;103352.44;;;8.31;92.94
25759;BME280;13604;52.496;13.456;2023-02-12T12:00:28;103341.34;;;8.14;93.15
25759;BME280;13604;52.496;13.456;2023-02-12T12:03:17;103355.91;;;7.86;94.30
25759;BME280;13604;52.496;13.456;2023-02-12T12:05:53;103354.88;;;7.58;96.32
25759;BME280;13604;52.496;13.456;2023-02-12T12:08:34;103360.97;;;7.41;97.82
25759;BME280;13604;52.496;13.456;2023-02-12T12:11:11;103337.16;;;7.10;99.98
25759;BME280;13604;52.496;13.456;2023-02-12T12:13:51;103336.72;;;7.14;100.00
25759;BME280;13604;52.496;13.456;2023-02-12T12:16:24;103337.16;;;7.01;100.00
25759;BME280;13604;52.496;13.456;2023-02-12T12:19:15;103351.03;;;7.02;100.00
25759;BME280;13604;52.496;13.456;2023-02-12T12:25:17;103344.75;;;7.87;97.49
25759;BME280;13604;52.496;13.456;2023-02-12T12:38:55;103331.22;;;8.26;93.93
25759;BME280;13604;52.496;13.456;2023-02-12T12:41:56;103336.50;;;8.45;92.72
25759;BME280;13604;52.496;13.456;2023-02-12T12:47:26;103310.03;;;8.86;88.16
25759;BME280;13604;52.496;13.456;2023-02-12T12:50:19;103312.97;;;8.99;86.91
25759;BME280;13604;52.496;13.456;2023-02-12T12:53:06;103318.69;;;9.33;85.51
25759;BME280;13604;52.496;13.456;2023-02-12T12:55:43;103319.22;;;9.39;84.81
25759;BME280;13604;52.496;13.456;2023-02-12T12:58:26;103315.38;;;9.06;84.34
25759;BME280;13604;52.496;13.456;2023-02-12T13:09:31;103322.50;;;10.84;77.63
25759;BME280;13604;52.496;13.456;2023-02-12T13:17:49;103323.78;;;10.90;73.62
25759;BME280;13604;52.496;13.456;2023-02-12T13:25:41;103312.22;;;9.97;76.91
25759;BME280;13604;52.496;13.456;2023-02-12T13:28:23;103295.00;;;9.78;76.75
25759;BME280;13604;52.496;13.456;2023-02-12T13:30:52;103320.00;;;10.16;77.10
25759;BME280;13604;52.496;13.456;2023-02-12T13:33:21;103311.00;;;10.62;74.88
25759;BME280;13604;52.496;13.456;2023-02-12T13:35:50;103312.56;;;10.70;73.72
25759;BME280;13604;52.496;13.456;2023-02-12T13:38:25;103300.06;;;10.86;72.69
25759;BME280;13604;52.496;13.456;2023-02-12T13:40:54;103302.22;;;11.23;71.78
25759;BME280;13604;52.496;13.456;2023-02-12T13:46:23;103292.38;;;17.71;49.05
25759;BME280;13604;52.496;13.456;2023-02-12T13:49:05;103280.50;;;16.86;50.23
25759;BME280;13604;52.496;13.456;2023-02-12T13:51:46;103285.53;;;17.89;47.71
25759;BME280;13604;52.496;13.456;2023-02-12T13:57:01;103282.88;;;17.58;47.20
25759;BME280;13604;52.496;13.456;2023-02-12T14:01:56;103289.50;;;16.18;50.59
25759;BME280;13604;52.496;13.456;2023-02-12T14:04:43;103290.28;;;15.89;51.43
25759;BME280;13604;52.496;13.456;2023-02-12T14:07:12;103295.28;;;15.06;52.79
25759;BME280;13604;52.496;13.456;2023-02-12T14:09:43;103283.59;;;14.25;54.38
25759;BME280;13604;52.496;13.456;2023-02-12T14:12:14;103270.25;;;12.91;58.03
25759;BME280;13604;52.496;13.456;2023-02-12T14:14:45;103263.22;;;12.22;61.19
25759;BME280;13604;52.496;13.456;2023-02-12T14:20:21;103282.78;;;11.30;65.32
25759;BME280;13604;52.496;13.456;2023-02-12T14:27:50;103290.53;;;10.06;71.18
25759;BME280;13604;52.496;13.456;2023-02-12T14:30:24;103290.72;;;9.79;72.36
25759;BME280;13604;52.496;13.456;2023-02-12T14:38:03;103301.88;;;9.10;75.86
25759;BME280;13604;52.496;13.456;2023-02-12T14:40:48;103292.88;;;8.88;76.71